createdAt,value
2018-11-04T00:04:33.474Z,82422.00
2018-11-04T00:09:37.280Z,82417.00
2018-11-04T00:14:41.182Z,82414.00
2018-11-04T00:19:45.217Z,82404.00
2018-11-04T00:24:49.364Z,82399.00
2018-11-04T00:29:53.227Z,82406.00
2018-11-04T00:34:57.185Z,82414.00
2018-11-04T00:40:01.022Z,82410.00
2018-11-04T00:45:06.329Z,82419.00
2018-11-04T00:50:12.771Z,82423.00
2018-11-04T00:55:16.568Z,82474.00
2018-11-04T01:00:20.439Z,82528.00
2018-11-04T01:05:24.238Z,82536.00
2018-11-04T01:10:28.037Z,82544.00
2018-11-04T01:15:31.862Z,82574.00
2018-11-04T01:20:35.668Z,82583.00
2018-11-04T01:25:39.701Z,82586.00
2018-11-04T01:30:43.522Z,82594.00
2018-11-04T01:35:47.406Z,82608.00
2018-11-04T01:40:51.467Z,82623.00
2018-11-04T01:45:55.270Z,82632.00
2018-11-04T01:50:59.078Z,82636.00
2018-11-04T01:56:02.961Z,82639.00
2018-11-04T02:01:07.006Z,82666.00
2018-11-04T02:06:10.833Z,82676.00
2018-11-04T02:11:14.636Z,82680.00
2018-11-04T02:16:18.442Z,82687.00
2018-11-04T02:21:22.304Z,82696.00
2018-11-04T02:26:26.108Z,82703.00
2018-11-04T02:31:30.154Z,82712.00
2018-11-04T02:36:34.221Z,82724.00
2018-11-04T02:41:38.289Z,82730.00
2018-11-04T02:46:42.128Z,82737.00
2018-11-04T02:51:45.903Z,82746.00
2018-11-04T02:56:49.828Z,82750.00
2018-11-04T03:01:53.942Z,82761.00
2018-11-04T03:06:57.672Z,82770.00
2018-11-04T03:12:01.526Z,82779.00
2018-11-04T03:17:05.493Z,82790.00
2018-11-04T03:22:09.297Z,82800.00
2018-11-04T03:27:13.205Z,82812.00
2018-11-04T03:32:17.400Z,82824.00
2018-11-04T03:37:21.223Z,82844.00
2018-11-04T03:42:25.009Z,82859.00
2018-11-04T03:47:28.810Z,82866.00
2018-11-04T03:52:32.646Z,82869.00
2018-11-04T03:57:36.453Z,82873.00
2018-11-04T04:02:41.037Z,82875.00
2018-11-04T04:07:44.843Z,82877.00
2018-11-04T04:12:48.733Z,82877.00
2018-11-04T04:17:53.346Z,82885.00
2018-11-04T04:22:57.377Z,82892.00
2018-11-04T04:28:03.052Z,82900.00
2018-11-04T04:33:06.889Z,82904.00
2018-11-04T04:38:10.729Z,82910.00
2018-11-04T04:43:14.554Z,82916.00
2018-11-04T04:48:18.410Z,82919.00
2018-11-04T04:53:24.863Z,82921.00
2018-11-04T04:58:28.685Z,82927.00
2018-11-04T05:03:32.507Z,82930.00
2018-11-04T05:08:36.334Z,82928.00
2018-11-04T05:13:40.394Z,82932.00
2018-11-04T05:18:44.224Z,82937.00
2018-11-04T05:23:48.106Z,82944.00
2018-11-04T05:28:51.909Z,82954.00
2018-11-04T05:33:55.966Z,82961.00
2018-11-04T05:38:59.792Z,82973.00
2018-11-04T05:44:03.915Z,82980.00
2018-11-04T05:49:07.844Z,82991.00
2018-11-04T05:54:11.654Z,82997.00
2018-11-04T05:59:15.478Z,83004.00
2018-11-04T06:04:19.342Z,83011.00
2018-11-04T06:09:23.157Z,83020.00
2018-11-04T06:14:26.974Z,83026.00
2018-11-04T06:19:31.149Z,83034.00
2018-11-04T06:24:34.962Z,83054.00
2018-11-04T06:29:38.793Z,83082.00
2018-11-04T06:34:42.768Z,83117.00
2018-11-04T06:39:46.772Z,83128.00
2018-11-04T06:44:50.590Z,83141.00
2018-11-04T06:49:54.410Z,83156.00
2018-11-04T06:54:58.235Z,83166.00
2018-11-04T07:00:02.363Z,83175.00
2018-11-04T07:05:06.101Z,83178.00
2018-11-04T07:10:10.540Z,83188.00
2018-11-04T07:15:14.378Z,83192.00
2018-11-04T07:20:18.231Z,83196.00
2018-11-04T07:25:22.058Z,83198.00
2018-11-04T07:30:25.867Z,83204.00
2018-11-04T07:35:29.675Z,83211.00
2018-11-04T07:40:33.755Z,83213.00
2018-11-04T07:45:40.776Z,83215.00
2018-11-04T07:50:44.680Z,83225.00
2018-11-04T07:55:48.822Z,83229.00
2018-11-04T08:00:52.657Z,83240.00
2018-11-04T08:05:57.199Z,83247.00
2018-11-04T08:11:01.251Z,83254.00
2018-11-04T08:16:05.313Z,83261.00
2018-11-04T08:21:09.137Z,83271.00
2018-11-04T08:26:12.968Z,83290.00
2018-11-04T08:31:17.014Z,83296.00
2018-11-04T08:36:20.865Z,83309.00
2018-11-04T08:41:24.685Z,83316.00
2018-11-04T08:46:28.524Z,83334.00
2018-11-04T08:51:32.402Z,83339.00
2018-11-04T08:56:36.301Z,83345.00
2018-11-04T09:01:42.417Z,83349.00
2018-11-04T09:06:46.275Z,83352.00
2018-11-04T09:11:50.107Z,83360.00
2018-11-04T09:16:54.189Z,83369.00
2018-11-04T09:21:58.450Z,83373.00
2018-11-04T09:27:02.578Z,83379.00
2018-11-04T09:32:06.411Z,83381.00
2018-11-04T09:37:10.231Z,83387.00
2018-11-04T09:42:14.078Z,83393.00
2018-11-04T09:47:18.249Z,83397.00
2018-11-04T09:52:22.118Z,83406.00
2018-11-04T09:57:25.922Z,83411.00
2018-11-04T10:02:29.833Z,83420.00
2018-11-04T10:07:34.490Z,83421.00
2018-11-04T10:12:38.705Z,83431.00
2018-11-04T10:17:42.626Z,83437.00
2018-11-04T10:22:46.482Z,83440.00
2018-11-04T10:27:50.381Z,83453.00
2018-11-04T10:32:54.443Z,83454.00
2018-11-04T10:37:58.265Z,83464.00
2018-11-04T10:43:02.120Z,83468.00
2018-11-04T10:48:05.937Z,83480.00
2018-11-04T10:53:09.761Z,83484.00
2018-11-04T10:58:13.611Z,83497.00
2018-11-04T11:03:17.524Z,83502.00
2018-11-04T11:08:21.626Z,83509.00
2018-11-04T11:13:25.477Z,83529.00
2018-11-04T11:18:29.314Z,83543.00
2018-11-04T11:23:33.233Z,83553.00
2018-11-04T11:28:37.694Z,83560.00
2018-11-04T11:33:41.662Z,83570.00
2018-11-04T11:38:45.579Z,83575.00
2018-11-04T11:43:49.449Z,83578.00
2018-11-04T11:48:53.780Z,83587.00
2018-11-04T11:53:57.618Z,83593.00
2018-11-04T11:59:01.472Z,83597.00
2018-11-04T12:04:05.496Z,83608.00
2018-11-04T12:09:09.844Z,83615.00
2018-11-04T12:14:13.672Z,83635.00
2018-11-04T12:19:18.364Z,83633.00
2018-11-04T12:24:28.803Z,83630.00
2018-11-04T12:29:32.967Z,83644.00
2018-11-04T12:34:36.794Z,83658.00
2018-11-04T12:39:40.620Z,83653.00
2018-11-04T12:44:44.811Z,83665.00
2018-11-04T12:49:48.893Z,83680.00
2018-11-04T12:54:52.733Z,83692.00
2018-11-04T12:59:56.573Z,83695.00
2018-11-04T13:05:00.406Z,83702.00
2018-11-04T13:10:05.736Z,83720.00
2018-11-04T13:15:11.245Z,83727.00
2018-11-04T13:20:15.061Z,83728.00
2018-11-04T13:25:19.262Z,83729.00
2018-11-04T13:30:23.102Z,83736.00
2018-11-04T13:35:26.925Z,83724.00
2018-11-04T13:40:30.831Z,83735.00
2018-11-04T13:45:35.036Z,83737.00
2018-11-04T13:50:38.876Z,83742.00
2018-11-04T13:55:42.701Z,83734.00
2018-11-04T14:00:47.113Z,83734.00
2018-11-04T14:05:50.975Z,83732.00
2018-11-04T14:10:55.078Z,83730.00
2018-11-04T14:15:58.909Z,83723.00
2018-11-04T14:21:03.299Z,83719.00
2018-11-04T14:26:09.150Z,83722.00
2018-11-04T14:31:13.099Z,83717.00
2018-11-04T14:36:16.849Z,83719.00
2018-11-04T14:41:20.694Z,83714.00
2018-11-04T14:46:24.569Z,83704.00
2018-11-04T14:51:28.651Z,83705.00
2018-11-04T14:56:32.499Z,83701.00
2018-11-04T15:01:36.673Z,83696.00
2018-11-04T15:06:40.426Z,83695.00
2018-11-04T15:11:44.259Z,83690.00
2018-11-04T15:16:48.187Z,83681.00
2018-11-04T15:21:52.022Z,83680.00
2018-11-04T15:26:56.112Z,83600.00
2018-11-04T15:31:59.981Z,83673.00
2018-11-04T15:37:03.886Z,83665.00
2018-11-04T15:42:07.749Z,83664.00
2018-11-04T15:47:11.578Z,83661.00
2018-11-04T15:52:15.485Z,83654.00
2018-11-04T15:57:19.401Z,83650.00
2018-11-04T16:02:23.177Z,83643.00
2018-11-04T16:07:27.044Z,83641.00
2018-11-04T16:12:31.247Z,83637.00
2018-11-04T16:17:35.034Z,83630.00
2018-11-04T16:22:39.531Z,83631.00
2018-11-04T16:27:43.439Z,83628.00
2018-11-04T16:32:47.330Z,83631.00
2018-11-04T16:37:51.195Z,83622.00
2018-11-04T16:42:55.013Z,83622.00
2018-11-04T16:47:58.872Z,83622.00
2018-11-04T16:53:02.769Z,83617.00
2018-11-04T16:58:06.612Z,83616.00
2018-11-04T17:03:10.674Z,83611.00
2018-11-04T17:08:14.557Z,83613.00
2018-11-04T17:13:18.682Z,83610.00
2018-11-04T17:18:22.529Z,83613.00
2018-11-04T17:23:26.594Z,83611.00
2018-11-04T17:28:30.439Z,83608.00
2018-11-04T17:33:34.590Z,83606.00
2018-11-04T17:38:38.418Z,83604.00
2018-11-04T17:43:42.343Z,83605.00
2018-11-04T17:48:46.174Z,83604.00
2018-11-04T17:53:50.373Z,83603.00
2018-11-04T17:58:54.450Z,83595.00
2018-11-04T18:03:58.629Z,83598.00
2018-11-04T18:09:02.491Z,83595.00
2018-11-04T18:14:06.489Z,83587.00
2018-11-04T18:19:10.327Z,83586.00
2018-11-04T18:24:14.390Z,83582.00
2018-11-04T18:29:18.329Z,83579.00
2018-11-04T18:34:22.122Z,83584.00
2018-11-04T18:39:25.953Z,83578.00
2018-11-04T18:44:30.065Z,83580.00
2018-11-04T18:49:34.001Z,83581.00
2018-11-04T18:54:38.042Z,83576.00
2018-11-04T18:59:41.870Z,83577.00
2018-11-04T19:04:46.014Z,83573.00
2018-11-04T19:09:49.952Z,83577.00
2018-11-04T19:14:53.773Z,83576.00
2018-11-04T19:19:57.657Z,83572.00
2018-11-04T19:25:01.790Z,83568.00
2018-11-04T19:30:07.193Z,83565.00
2018-11-04T19:35:12.024Z,83558.00
2018-11-04T19:40:16.459Z,83559.00
2018-11-04T19:45:20.540Z,83554.00
2018-11-04T19:50:24.354Z,83552.00
2018-11-04T19:55:28.182Z,83551.00
2018-11-04T20:00:32.139Z,83537.00
2018-11-04T20:05:36.237Z,83540.00
2018-11-04T20:10:40.120Z,83546.00
2018-11-04T20:15:43.949Z,83550.00
2018-11-04T20:20:48.026Z,83552.00
2018-11-04T20:25:57.682Z,83556.00
2018-11-04T20:31:01.579Z,83566.00
2018-11-04T20:36:05.509Z,83563.00
2018-11-04T20:41:14.737Z,83576.00
2018-11-04T20:46:18.669Z,83573.00
2018-11-04T20:51:22.545Z,83575.00
2018-11-04T20:56:31.955Z,83572.00
2018-11-04T21:01:36.091Z,83561.00
2018-11-04T21:06:40.162Z,83564.00
2018-11-04T21:11:44.022Z,83559.00
2018-11-04T21:16:48.125Z,83559.00
2018-11-04T21:21:52.364Z,83558.00
2018-11-04T21:26:56.333Z,83562.00
2018-11-04T21:32:00.166Z,83553.00
2018-11-04T21:37:04.698Z,83540.00
2018-11-04T21:42:08.763Z,83537.00
2018-11-04T21:47:12.634Z,83537.00
2018-11-04T21:52:16.790Z,83537.00
2018-11-04T21:57:20.895Z,83538.00
2018-11-04T22:02:25.013Z,83531.00
2018-11-04T22:07:29.265Z,83528.00
2018-11-04T22:12:33.198Z,83532.00
2018-11-04T22:17:37.447Z,83540.00
2018-11-04T22:22:41.544Z,83539.00
2018-11-04T22:27:45.619Z,83542.00
2018-11-04T22:32:49.506Z,83546.00
2018-11-04T22:37:53.321Z,83547.00
2018-11-04T22:42:57.174Z,83539.00
2018-11-04T22:48:01.027Z,83537.00
2018-11-04T22:53:04.929Z,83536.00
2018-11-04T22:58:09.330Z,83537.00
2018-11-04T23:03:13.247Z,83535.00
2018-11-04T23:08:17.374Z,83533.00
2018-11-04T23:13:21.232Z,83523.00
2018-11-04T23:18:25.106Z,83522.00
2018-11-04T23:23:29.167Z,83525.00
2018-11-04T23:28:33.326Z,83532.00
2018-11-04T23:33:37.153Z,83533.00
2018-11-04T23:38:41.335Z,83529.00
2018-11-04T23:43:45.174Z,83520.00
2018-11-04T23:48:49.026Z,83522.00
2018-11-04T23:53:53.210Z,83513.00
2018-11-04T23:58:57.874Z,83511.00
